createdAt,value
2017-12-03T00:01:33.167Z,12.70
2017-12-03T00:04:38.859Z,12.50
2017-12-03T00:07:44.171Z,12.20
2017-12-03T00:10:49.850Z,12.40
2017-12-03T00:13:55.214Z,12.50
2017-12-03T00:17:00.204Z,12.77
2017-12-03T00:20:06.052Z,13.23
2017-12-03T00:23:11.228Z,12.77
2017-12-03T00:26:16.676Z,12.60
2017-12-03T00:29:22.076Z,13.40
2017-12-03T00:32:27.325Z,13.13
2017-12-03T00:35:34.100Z,13.73
2017-12-03T00:38:39.450Z,13.53
2017-12-03T00:41:44.459Z,16.97
2017-12-03T00:44:49.962Z,14.73
2017-12-03T00:47:56.541Z,14.77
2017-12-03T00:51:02.423Z,14.70
2017-12-03T00:54:07.906Z,14.17
2017-12-03T00:57:13.409Z,14.57
2017-12-03T01:00:19.732Z,14.27
2017-12-03T01:03:25.420Z,14.87
2017-12-03T01:06:30.810Z,15.20
2017-12-03T01:09:36.887Z,15.23
2017-12-03T01:12:42.515Z,14.73
2017-12-03T01:15:47.241Z,14.27
2017-12-03T01:18:52.063Z,13.70
2017-12-03T01:21:57.829Z,13.30
2017-12-03T01:25:03.249Z,14.43
2017-12-03T01:28:09.520Z,13.20
2017-12-03T01:31:16.027Z,14.57
2017-12-03T01:34:21.717Z,12.97
2017-12-03T01:37:27.449Z,14.23
2017-12-03T01:40:32.721Z,14.30
2017-12-03T01:43:38.359Z,14.47
2017-12-03T01:46:44.232Z,14.13
2017-12-03T01:49:50.508Z,14.20
2017-12-03T01:52:55.568Z,13.57
2017-12-03T01:56:01.144Z,13.87
2017-12-03T01:59:06.791Z,11.50
2017-12-03T02:02:12.591Z,12.93
2017-12-03T02:05:20.985Z,13.53
2017-12-03T02:08:26.516Z,14.27
2017-12-03T02:11:32.244Z,13.57
2017-12-03T02:14:37.111Z,13.10
2017-12-03T02:17:42.348Z,14.10
2017-12-03T02:20:48.355Z,12.73
2017-12-03T02:23:53.931Z,12.23
2017-12-03T02:26:59.500Z,11.80
2017-12-03T02:30:04.511Z,13.27
2017-12-03T02:33:10.596Z,12.33
2017-12-03T02:36:16.220Z,11.63
2017-12-03T02:39:21.772Z,12.40
2017-12-03T02:42:27.464Z,12.73
2017-12-03T02:45:32.399Z,12.47
2017-12-03T02:48:38.173Z,13.13
2017-12-03T02:51:44.000Z,14.00
2017-12-03T02:54:48.757Z,13.17
2017-12-03T02:57:54.345Z,12.30
2017-12-03T03:01:00.993Z,12.17
2017-12-03T03:04:06.016Z,13.00
2017-12-03T03:07:11.633Z,11.73
2017-12-03T03:10:16.788Z,12.70
2017-12-03T03:13:22.041Z,12.90
2017-12-03T03:16:26.880Z,12.90
2017-12-03T03:19:31.956Z,13.37
2017-12-03T03:22:36.755Z,13.33
2017-12-03T03:25:42.403Z,12.20
2017-12-03T03:28:48.116Z,11.97
2017-12-03T03:31:53.890Z,12.67
2017-12-03T03:35:02.364Z,12.07
2017-12-03T03:38:07.688Z,13.43
2017-12-03T03:41:13.566Z,11.43
2017-12-03T03:44:19.019Z,11.77
2017-12-03T03:47:25.874Z,11.40
2017-12-03T03:50:32.188Z,10.60
2017-12-03T03:53:40.229Z,11.50
2017-12-03T03:56:45.784Z,11.77
2017-12-03T03:59:51.092Z,12.27
2017-12-03T04:02:56.539Z,11.83
2017-12-03T04:06:02.093Z,12.20
2017-12-03T04:09:08.224Z,11.70
2017-12-03T04:12:13.735Z,12.00
2017-12-03T04:15:18.883Z,12.53
2017-12-03T04:18:24.471Z,13.50
2017-12-03T04:21:30.837Z,12.83
2017-12-03T04:24:35.595Z,12.37
2017-12-03T04:27:40.400Z,12.10
2017-12-03T04:30:52.433Z,11.17
2017-12-03T04:33:57.399Z,10.83
2017-12-03T04:37:02.519Z,11.80
2017-12-03T04:40:08.107Z,12.17
2017-12-03T04:43:13.885Z,13.20
2017-12-03T04:46:19.464Z,12.50
2017-12-03T04:49:24.949Z,12.13
2017-12-03T04:52:29.975Z,12.50
2017-12-03T04:55:35.792Z,11.87
2017-12-03T04:58:41.368Z,12.00
2017-12-03T05:01:47.159Z,11.73
2017-12-03T05:04:52.604Z,12.33
2017-12-03T05:07:58.417Z,12.67
2017-12-03T05:11:03.484Z,10.97
2017-12-03T05:14:10.172Z,12.00
2017-12-03T05:17:14.824Z,10.90
2017-12-03T05:20:19.891Z,10.17
2017-12-03T05:23:25.289Z,10.70
2017-12-03T05:26:30.050Z,12.77
2017-12-03T05:29:35.527Z,12.03
2017-12-03T05:32:41.997Z,11.10
2017-12-03T05:35:47.840Z,11.67
2017-12-03T05:38:53.154Z,11.47
2017-12-03T05:41:58.531Z,11.43
2017-12-03T05:45:04.028Z,12.03
2017-12-03T05:48:10.125Z,11.40
2017-12-03T05:51:15.556Z,11.10
2017-12-03T05:54:21.415Z,11.03
2017-12-03T05:57:26.137Z,10.73
2017-12-03T06:00:31.204Z,10.63
2017-12-03T06:03:36.600Z,12.40
2017-12-03T06:06:42.226Z,10.50
2017-12-03T06:09:47.620Z,10.30
2017-12-03T06:13:00.969Z,10.83
2017-12-03T06:16:05.789Z,10.00
2017-12-03T06:19:11.892Z,10.77
2017-12-03T06:22:17.832Z,10.00
2017-12-03T06:25:22.864Z,10.40
2017-12-03T06:28:28.040Z,11.30
2017-12-03T06:31:33.536Z,11.70
2017-12-03T06:34:39.340Z,10.73
2017-12-03T06:37:44.756Z,9.70
2017-12-03T06:40:50.585Z,9.23
2017-12-03T06:43:56.168Z,10.40
2017-12-03T06:47:03.353Z,10.90
2017-12-03T06:50:08.896Z,10.93
2017-12-03T06:53:15.584Z,10.43
2017-12-03T06:56:21.460Z,9.67
2017-12-03T06:59:28.312Z,9.93
2017-12-03T07:02:33.643Z,9.10
2017-12-03T07:05:39.419Z,10.50
2017-12-03T07:08:44.476Z,9.60
2017-12-03T07:11:49.507Z,10.20
2017-12-03T07:14:54.795Z,10.70
2017-12-03T07:18:00.356Z,9.93
2017-12-03T07:21:05.243Z,11.13
2017-12-03T07:24:10.589Z,9.63
2017-12-03T07:27:16.092Z,8.70
2017-12-03T07:30:22.433Z,9.67
2017-12-03T07:33:27.451Z,8.83
2017-12-03T07:36:33.394Z,8.70
2017-12-03T07:39:39.083Z,10.27
2017-12-03T07:42:44.578Z,9.70
2017-12-03T07:45:50.967Z,9.80
2017-12-03T07:48:56.539Z,9.80
2017-12-03T07:52:03.143Z,10.13
2017-12-03T07:55:08.892Z,10.17
2017-12-03T07:58:15.976Z,9.67
2017-12-03T08:01:21.363Z,10.10
2017-12-03T08:04:28.452Z,8.73
2017-12-03T08:07:34.524Z,9.40
2017-12-03T08:10:39.676Z,9.33
2017-12-03T08:13:45.588Z,9.40
2017-12-03T08:16:50.435Z,9.90
2017-12-03T08:19:59.112Z,8.97
2017-12-03T08:23:04.372Z,10.10
2017-12-03T08:26:09.170Z,10.10
2017-12-03T08:29:14.768Z,9.80
2017-12-03T08:32:20.137Z,9.43
2017-12-03T08:35:25.468Z,8.90
2017-12-03T08:38:30.804Z,9.03
2017-12-03T08:41:36.467Z,9.93
2017-12-03T08:44:42.051Z,9.03
2017-12-03T08:47:47.626Z,8.83
2017-12-03T08:50:52.830Z,9.30
2017-12-03T08:53:57.819Z,10.53
2017-12-03T08:57:03.372Z,9.80
2017-12-03T09:00:08.628Z,9.40
2017-12-03T09:03:17.427Z,10.57
2017-12-03T09:06:22.603Z,11.33
2017-12-03T09:09:28.836Z,11.40
2017-12-03T09:12:34.302Z,10.30
2017-12-03T09:15:39.676Z,11.10
2017-12-03T09:18:45.512Z,11.87
2017-12-03T09:21:50.585Z,10.00
2017-12-03T09:24:55.944Z,10.73
2017-12-03T09:28:00.867Z,10.23
2017-12-03T09:31:06.850Z,10.30
2017-12-03T09:34:12.820Z,10.70
2017-12-03T09:37:18.912Z,12.10
2017-12-03T09:40:25.298Z,11.00
2017-12-03T09:43:31.769Z,10.83
2017-12-03T09:46:40.616Z,10.87
2017-12-03T09:49:46.402Z,10.33
2017-12-03T09:52:51.598Z,10.37
2017-12-03T09:55:56.644Z,10.70
2017-12-03T09:59:01.468Z,9.77
2017-12-03T10:02:07.859Z,11.10
2017-12-03T10:05:13.104Z,10.23
2017-12-03T10:08:18.665Z,10.50
2017-12-03T10:11:25.064Z,10.90
2017-12-03T10:14:30.408Z,11.33
2017-12-03T10:17:35.989Z,10.50
2017-12-03T10:20:42.720Z,9.90
2017-12-03T10:23:47.964Z,11.20
2017-12-03T10:26:53.280Z,9.40
2017-12-03T10:29:58.708Z,11.03
2017-12-03T10:33:04.200Z,10.53
2017-12-03T10:36:09.896Z,10.67
2017-12-03T10:39:14.648Z,12.07
2017-12-03T10:42:19.723Z,9.90
2017-12-03T10:45:24.561Z,13.17
2017-12-03T10:48:29.700Z,12.57
2017-12-03T10:51:34.303Z,13.80
2017-12-03T10:54:40.320Z,11.47
2017-12-03T10:57:45.655Z,11.10
2017-12-03T11:00:50.799Z,10.10
2017-12-03T11:03:56.321Z,10.83
2017-12-03T11:07:01.744Z,11.50
2017-12-03T11:10:07.031Z,10.53
2017-12-03T11:13:12.772Z,12.40
2017-12-03T11:16:17.415Z,12.20
2017-12-03T11:19:23.098Z,12.07
2017-12-03T11:22:28.404Z,11.80
2017-12-03T11:25:34.940Z,10.80
2017-12-03T11:28:39.771Z,9.03
2017-12-03T11:31:46.615Z,11.40
2017-12-03T11:34:52.248Z,12.40
2017-12-03T11:37:58.353Z,11.47
2017-12-03T11:41:03.689Z,13.10
2017-12-03T11:44:09.701Z,12.47
2017-12-03T11:47:16.261Z,10.10
2017-12-03T11:50:21.391Z,13.23
2017-12-03T11:53:27.814Z,13.30
2017-12-03T11:56:33.431Z,9.80
2017-12-03T11:59:39.342Z,13.00
2017-12-03T12:02:44.152Z,13.00
2017-12-03T12:05:50.580Z,12.67
2017-12-03T12:08:55.956Z,12.60
2017-12-03T12:12:01.218Z,11.03
2017-12-03T12:15:06.457Z,14.43
2017-12-03T12:18:11.524Z,11.67
2017-12-03T12:21:16.524Z,12.33
2017-12-03T12:24:23.042Z,13.10
2017-12-03T12:27:29.015Z,13.90
2017-12-03T12:30:39.488Z,11.80
2017-12-03T12:33:45.251Z,11.90
2017-12-03T12:36:51.634Z,12.97
2017-12-03T12:40:06.460Z,13.43
2017-12-03T12:43:12.071Z,12.80
2017-12-03T12:46:18.850Z,14.70
2017-12-03T12:49:24.200Z,11.37
2017-12-03T12:52:30.264Z,13.30
2017-12-03T12:55:35.476Z,15.80
2017-12-03T12:58:42.123Z,14.07
2017-12-03T13:01:47.207Z,14.87
2017-12-03T13:04:53.737Z,15.83
2017-12-03T13:07:59.048Z,16.30
2017-12-03T13:11:05.084Z,17.20
2017-12-03T13:14:10.536Z,17.50
2017-12-03T13:17:15.864Z,15.77
2017-12-03T13:20:21.803Z,14.97
2017-12-03T13:23:27.045Z,15.50
2017-12-03T13:26:31.991Z,17.13
2017-12-03T13:29:36.832Z,17.00
2017-12-03T13:32:43.220Z,13.53
2017-12-03T13:35:49.016Z,17.00
2017-12-03T13:38:54.129Z,15.50
2017-12-03T13:42:00.740Z,15.43
2017-12-03T13:45:06.545Z,15.73
2017-12-03T13:48:11.945Z,14.93
2017-12-03T13:51:17.029Z,15.67
2017-12-03T13:54:22.071Z,16.50
2017-12-03T13:57:27.535Z,17.30
2017-12-03T14:00:33.775Z,16.73
2017-12-03T14:03:38.532Z,15.10
2017-12-03T14:06:45.096Z,15.27
2017-12-03T14:09:51.567Z,17.37
2017-12-03T14:12:56.604Z,17.13
2017-12-03T14:16:02.257Z,16.13
2017-12-03T14:19:07.977Z,16.80
2017-12-03T14:22:13.187Z,17.43
2017-12-03T14:25:18.940Z,14.83
2017-12-03T14:28:24.100Z,17.37
2017-12-03T14:31:29.584Z,17.57
2017-12-03T14:34:35.221Z,17.83
2017-12-03T14:37:40.708Z,18.90
2017-12-03T14:40:45.976Z,19.10
2017-12-03T14:43:50.790Z,17.80
2017-12-03T14:46:55.941Z,17.60
2017-12-03T14:50:01.972Z,18.47
2017-12-03T14:53:07.380Z,18.20
2017-12-03T14:56:12.126Z,19.50
2017-12-03T14:59:17.025Z,18.90
2017-12-03T15:02:22.673Z,18.07
2017-12-03T15:05:28.812Z,17.83
2017-12-03T15:08:34.126Z,21.50
2017-12-03T15:11:41.855Z,19.30
2017-12-03T15:14:52.480Z,21.50
2017-12-03T15:18:03.432Z,21.20
2017-12-03T15:21:11.088Z,32.33
2017-12-03T15:24:15.714Z,24.20
2017-12-03T15:27:20.600Z,21.20
2017-12-03T15:30:26.345Z,21.93
2017-12-03T15:33:31.635Z,23.80
2017-12-03T15:36:38.755Z,21.70
2017-12-03T15:39:44.062Z,18.93
2017-12-03T15:42:57.330Z,19.43
2017-12-03T15:46:02.391Z,19.93
2017-12-03T15:49:07.727Z,19.60
2017-12-03T15:52:13.701Z,19.10
2017-12-03T15:55:19.136Z,19.40
2017-12-03T15:58:24.920Z,18.10
2017-12-03T16:01:30.871Z,20.20
2017-12-03T16:04:36.721Z,18.63
2017-12-03T16:07:46.564Z,20.50
2017-12-03T16:10:52.559Z,20.23
2017-12-03T16:13:59.148Z,19.47
2017-12-03T16:17:04.487Z,18.87
2017-12-03T16:20:10.966Z,21.67
2017-12-03T16:23:18.812Z,19.93
2017-12-03T16:26:24.591Z,19.87
2017-12-03T16:29:33.203Z,19.77
2017-12-03T16:32:38.739Z,19.47
2017-12-03T16:35:43.516Z,20.33
2017-12-03T16:38:50.519Z,18.43
2017-12-03T16:41:55.571Z,20.80
2017-12-03T16:45:00.653Z,17.20
2017-12-03T16:48:12.024Z,18.40
2017-12-03T16:51:18.051Z,19.67
2017-12-03T16:54:22.857Z,20.07
2017-12-03T16:57:28.380Z,20.57
2017-12-03T17:00:34.158Z,19.90
2017-12-03T17:03:40.227Z,21.40
2017-12-03T17:06:45.477Z,21.30
2017-12-03T17:09:51.653Z,19.77
2017-12-03T17:12:57.645Z,17.87
2017-12-03T17:16:03.583Z,24.80
2017-12-03T17:19:09.200Z,22.10
2017-12-03T17:22:15.692Z,18.83
2017-12-03T17:25:21.238Z,19.30
2017-12-03T17:28:33.227Z,18.97
2017-12-03T17:31:39.173Z,20.30
2017-12-03T17:34:45.753Z,20.23
2017-12-03T17:37:50.763Z,16.87
2017-12-03T17:40:56.741Z,18.37
2017-12-03T17:44:02.072Z,18.63
2017-12-03T17:47:07.281Z,17.00
2017-12-03T17:50:12.600Z,18.20
2017-12-03T17:53:25.698Z,16.53
2017-12-03T17:56:31.900Z,15.33
2017-12-03T17:59:37.170Z,17.27
2017-12-03T18:02:47.299Z,17.27
2017-12-03T18:06:02.980Z,17.20
2017-12-03T18:09:10.620Z,16.43
2017-12-03T18:12:16.815Z,16.60
2017-12-03T18:15:22.992Z,17.27
2017-12-03T18:18:28.564Z,18.93
2017-12-03T18:21:34.005Z,17.77
2017-12-03T18:24:41.876Z,15.97
2017-12-03T18:27:48.325Z,17.40
2017-12-03T18:30:54.691Z,17.03
2017-12-03T18:34:00.360Z,17.67
2017-12-03T18:37:05.915Z,16.93
2017-12-03T18:40:16.840Z,17.40
2017-12-03T18:43:23.423Z,18.43
2017-12-03T18:46:29.264Z,17.53
2017-12-03T18:49:34.532Z,18.60
2017-12-03T18:52:40.857Z,17.20
2017-12-03T18:55:45.886Z,16.47
2017-12-03T18:58:51.514Z,19.23
2017-12-03T19:02:03.093Z,19.63
2017-12-03T19:05:09.484Z,18.73
2017-12-03T19:08:16.188Z,20.97
2017-12-03T19:11:22.277Z,18.27
2017-12-03T19:14:29.233Z,17.97
2017-12-03T19:17:34.557Z,16.90
2017-12-03T19:20:40.826Z,17.73
2017-12-03T19:23:48.250Z,18.13
2017-12-03T19:26:54.504Z,18.80
2017-12-03T19:29:59.535Z,12.60
2017-12-03T19:33:06.180Z,13.00
2017-12-03T19:36:11.882Z,18.07
2017-12-03T19:39:17.592Z,18.53
2017-12-03T19:42:22.548Z,17.70
2017-12-03T19:45:31.624Z,19.80
2017-12-03T19:48:37.067Z,15.90
2017-12-03T19:51:43.579Z,15.83
2017-12-03T19:54:49.338Z,17.97
2017-12-03T19:57:54.281Z,16.80
2017-12-03T20:00:59.939Z,15.77
2017-12-03T20:04:05.367Z,17.90
2017-12-03T20:07:11.526Z,18.00
2017-12-03T20:10:16.695Z,15.43
2017-12-03T20:13:22.855Z,15.40
2017-12-03T20:16:28.664Z,16.70
2017-12-03T20:19:34.903Z,17.20
2017-12-03T20:22:40.269Z,16.60
2017-12-03T20:25:46.203Z,16.63
2017-12-03T20:28:52.196Z,15.17
2017-12-03T20:31:58.003Z,16.20
2017-12-03T20:35:04.456Z,16.07
2017-12-03T20:38:09.590Z,13.40
2017-12-03T20:41:15.676Z,14.93
2017-12-03T20:44:20.944Z,15.13
2017-12-03T20:47:25.780Z,11.37
2017-12-03T20:50:31.482Z,11.90
2017-12-03T20:53:36.684Z,13.23
2017-12-03T20:56:42.345Z,12.70
2017-12-03T20:59:47.188Z,10.20
2017-12-03T21:02:57.981Z,12.67
2017-12-03T21:06:03.559Z,12.90
2017-12-03T21:09:09.786Z,13.30
2017-12-03T21:12:15.423Z,14.20
2017-12-03T21:15:20.768Z,14.40
2017-12-03T21:18:26.576Z,12.90
2017-12-03T21:21:32.246Z,13.43
2017-12-03T21:24:38.074Z,13.50
2017-12-03T21:27:43.581Z,15.13
2017-12-03T21:30:50.083Z,14.50
2017-12-03T21:33:55.268Z,14.60
2017-12-03T21:37:00.564Z,13.00
2017-12-03T21:40:05.827Z,15.83
2017-12-03T21:43:11.193Z,12.70
2017-12-03T21:46:16.083Z,13.70
2017-12-03T21:49:21.476Z,14.23
2017-12-03T21:52:26.826Z,15.97
2017-12-03T21:55:32.108Z,15.13
2017-12-03T21:58:38.044Z,16.70
2017-12-03T22:01:43.184Z,15.40
2017-12-03T22:04:49.917Z,17.63
2017-12-03T22:07:58.539Z,15.53
2017-12-03T22:11:04.060Z,16.33
2017-12-03T22:14:09.607Z,14.87
2017-12-03T22:17:14.527Z,16.50
2017-12-03T22:20:20.372Z,16.70
2017-12-03T22:23:25.220Z,14.17
2017-12-03T22:26:30.828Z,14.13
2017-12-03T22:29:36.074Z,15.20
2017-12-03T22:32:41.124Z,15.97
2017-12-03T22:35:46.867Z,15.10
2017-12-03T22:38:52.619Z,15.97
2017-12-03T22:41:58.164Z,16.83
2017-12-03T22:45:05.132Z,17.60
2017-12-03T22:48:10.584Z,17.80
2017-12-03T22:51:17.092Z,18.03
2017-12-03T22:54:22.570Z,18.80
2017-12-03T22:57:30.144Z,20.07
2017-12-03T23:00:41.111Z,19.27
2017-12-03T23:03:47.510Z,19.20
2017-12-03T23:06:52.914Z,18.60
2017-12-03T23:09:58.096Z,19.00
2017-12-03T23:13:03.761Z,18.03
2017-12-03T23:16:08.707Z,18.00
2017-12-03T23:19:14.012Z,17.80
2017-12-03T23:22:19.620Z,18.40
2017-12-03T23:25:25.981Z,15.40
2017-12-03T23:28:31.536Z,15.53
2017-12-03T23:31:37.140Z,20.10
2017-12-03T23:34:42.096Z,20.40
2017-12-03T23:37:49.200Z,19.53
2017-12-03T23:40:54.444Z,21.53
2017-12-03T23:43:59.901Z,19.90
2017-12-03T23:47:04.715Z,18.17
2017-12-03T23:50:09.564Z,18.07
2017-12-03T23:53:14.897Z,18.80
2017-12-03T23:56:20.157Z,20.73
2017-12-03T23:59:25.205Z,17.90
